sensor_id;sensor_type;location;lat;lon;timestamp;pressure;altitude;pressure_sealevel;temperature;humidity
63946;BME280;50122;56.330;43.838;2023-04-03T00:00:48;100869.44;;;0.45;89.08
63946;BME280;50122;56.330;43.838;2023-04-03T00:03:17;100862.50;;;0.47;89.09
63946;BME280;50122;56.330;43.838;2023-04-03T00:05:46;100872.06;;;0.48;89.16
63946;BME280;50122;56.330;43.838;2023-04-03T00:08:13;100872.91;;;0.45;89.32
63946;BME280;50122;56.330;43.838;2023-04-03T00:10:39;100875.47;;;0.42;88.92
63946;BME280;50122;56.330;43.838;2023-04-03T00:13:07;100874.63;;;0.45;88.93
63946;BME280;50122;56.330;43.838;2023-04-03T00:15:35;100873.75;;;0.44;89.61
63946;BME280;50122;56.330;43.838;2023-04-03T00:18:03;100872.00;;;0.43;89.09
63946;BME280;50122;56.330;43.838;2023-04-03T00:20:31;100872.03;;;0.46;88.64
63946;BME280;50122;56.330;43.838;2023-04-03T00:22:58;100872.06;;;0.49;89.57
63946;BME280;50122;56.330;43.838;2023-04-03T00:25:26;100870.31;;;0.50;89.24
63946;BME280;50122;56.330;43.838;2023-04-03T00:27:53;100871.22;;;0.52;90.21
63946;BME280;50122;56.330;43.838;2023-04-03T00:30:20;100875.56;;;0.59;90.49
63946;BME280;50122;56.330;43.838;2023-04-03T00:32:51;100869.53;;;0.60;89.37
63946;BME280;50122;56.330;43.838;2023-04-03T00:35:20;100866.94;;;0.65;89.85
63946;BME280;50122;56.330;43.838;2023-04-03T00:37:47;100864.41;;;0.71;89.91
63946;BME280;50122;56.330;43.838;2023-04-03T00:40:15;100871.41;;;0.84;90.77
63946;BME280;50122;56.330;43.838;2023-04-03T00:42:43;100868.91;;;1.03;91.03
63946;BME280;50122;56.330;43.838;2023-04-03T00:47:44;100869.91;;;1.37;91.46
63946;BME280;50122;56.330;43.838;2023-04-03T00:50:11;100861.25;;;1.42;90.94
63946;BME280;50122;56.330;43.838;2023-04-03T00:52:38;100869.06;;;1.46;91.96
63946;BME280;50122;56.330;43.838;2023-04-03T00:55:08;100865.56;;;1.47;91.45
63946;BME280;50122;56.330;43.838;2023-04-03T00:57:36;100865.56;;;1.47;91.78
63946;BME280;50122;56.330;43.838;2023-04-03T01:00:08;100868.22;;;1.55;90.96
63946;BME280;50122;56.330;43.838;2023-04-03T01:02:38;100865.63;;;1.63;92.24
63946;BME280;50122;56.330;43.838;2023-04-03T01:05:08;100868.25;;;1.72;92.67
63946;BME280;50122;56.330;43.838;2023-04-03T01:07:35;100867.38;;;1.78;92.28
63946;BME280;50122;56.330;43.838;2023-04-03T01:10:08;100868.25;;;1.75;91.16
63946;BME280;50122;56.330;43.838;2023-04-03T01:12:38;100863.91;;;1.72;nan
63946;BME280;50122;56.330;43.838;2023-04-03T01:15:12;100861.31;;;1.71;91.40
63946;BME280;50122;56.330;43.838;2023-04-03T01:25:47;100859.56;;;1.71;91.64
63946;BME280;50122;56.330;43.838;2023-04-03T01:28:30;100858.69;;;1.66;91.03
63946;BME280;50122;56.330;43.838;2023-04-03T01:34:15;100853.47;;;1.65;92.31
63946;BME280;50122;56.330;43.838;2023-04-03T01:36:42;100863.00;;;1.64;92.64
63946;BME280;50122;56.330;43.838;2023-04-03T01:39:09;100865.63;;;1.67;92.21
63946;BME280;50122;56.330;43.838;2023-04-03T01:41:36;100861.25;;;1.60;92.32
63946;BME280;50122;56.330;43.838;2023-04-03T01:44:03;100856.91;;;1.53;92.45
63946;BME280;50122;56.330;43.838;2023-04-03T01:46:30;100863.00;;;1.49;91.92
63946;BME280;50122;56.330;43.838;2023-04-03T01:48:57;100869.91;;;1.42;91.59
63946;BME280;50122;56.330;43.838;2023-04-03T01:51:24;100863.81;;;1.34;92.55
63946;BME280;50122;56.330;43.838;2023-04-03T01:53:50;100861.19;;;1.31;91.70
63946;BME280;50122;56.330;43.838;2023-04-03T01:56:17;100862.03;;;1.27;92.66
63946;BME280;50122;56.330;43.838;2023-04-03T01:58:44;100861.19;;;1.25;92.58
63946;BME280;50122;56.330;43.838;2023-04-03T02:01:11;100857.69;;;1.21;92.81
63946;BME280;50122;56.330;43.838;2023-04-03T02:03:38;100863.75;;;1.18;92.53
63946;BME280;50122;56.330;43.838;2023-04-03T02:06:05;100863.78;;;1.23;92.89
63946;BME280;50122;56.330;43.838;2023-04-03T02:08:32;100859.44;;;1.24;93.02
63946;BME280;50122;56.330;43.838;2023-04-03T02:10:59;100862.03;;;1.22;92.74
63946;BME280;50122;56.330;43.838;2023-04-03T02:13:25;100854.22;;;1.20;93.23
63946;BME280;50122;56.330;43.838;2023-04-03T02:15:52;100862.88;;;1.19;92.67
63946;BME280;50122;56.330;43.838;2023-04-03T02:18:19;100866.34;;;1.18;92.63
63946;BME280;50122;56.330;43.838;2023-04-03T02:20:46;100853.31;;;1.17;92.96
63946;BME280;50122;56.330;43.838;2023-04-03T02:23:15;100856.81;;;1.17;92.90
63946;BME280;50122;56.330;43.838;2023-04-03T02:25:42;100868.09;;;1.16;92.72
63946;BME280;50122;56.330;43.838;2023-04-03T02:28:10;100864.63;;;1.14;93.16
63946;BME280;50122;56.330;43.838;2023-04-03T02:30:37;100864.63;;;1.14;92.82
63946;BME280;50122;56.330;43.838;2023-04-03T02:33:04;100862.00;;;1.13;93.31
63946;BME280;50122;56.330;43.838;2023-04-03T02:35:31;100859.41;;;1.13;93.37
63946;BME280;50122;56.330;43.838;2023-04-03T02:37:58;100856.75;;;1.11;93.36
63946;BME280;50122;56.330;43.838;2023-04-03T02:40:24;100861.13;;;1.11;93.03
63946;BME280;50122;56.330;43.838;2023-04-03T02:42:51;100860.25;;;1.10;93.04
63946;BME280;50122;56.330;43.838;2023-04-03T02:45:18;100866.31;;;1.09;93.25
63946;BME280;50122;56.330;43.838;2023-04-03T02:47:44;100867.19;;;1.10;93.13
63946;BME280;50122;56.330;43.838;2023-04-03T02:50:12;100866.31;;;1.11;93.45
63946;BME280;50122;56.330;43.838;2023-04-03T02:52:39;100868.94;;;1.17;94.09
63946;BME280;50122;56.330;43.838;2023-04-03T02:55:06;100858.56;;;1.21;93.67
63946;BME280;50122;56.330;43.838;2023-04-03T02:57:33;100869.00;;;1.25;93.45
63946;BME280;50122;56.330;43.838;2023-04-03T03:00:00;100868.09;;;1.26;93.92
63946;BME280;50122;56.330;43.838;2023-04-03T03:02:26;100866.38;;;1.26;93.86
63946;BME280;50122;56.330;43.838;2023-04-03T03:04:54;100862.03;;;1.24;93.54
63946;BME280;50122;56.330;43.838;2023-04-03T03:07:21;100859.44;;;1.25;92.91
63946;BME280;50122;56.330;43.838;2023-04-03T03:09:48;100862.91;;;1.26;93.03
63946;BME280;50122;56.330;43.838;2023-04-03T03:12:14;100869.84;;;1.28;93.52
63946;BME280;50122;56.330;43.838;2023-04-03T03:14:41;100866.41;;;1.31;94.08
63946;BME280;50122;56.330;43.838;2023-04-03T03:17:09;100874.22;;;1.32;92.91
63946;BME280;50122;56.330;43.838;2023-04-03T03:19:36;100875.09;;;1.34;93.46
63946;BME280;50122;56.330;43.838;2023-04-03T03:22:02;100876.84;;;1.38;93.46
63946;BME280;50122;56.330;43.838;2023-04-03T03:24:29;100868.16;;;1.43;93.84
63946;BME280;50122;56.330;43.838;2023-04-03T03:26:56;100869.06;;;1.46;93.33
63946;BME280;50122;56.330;43.838;2023-04-03T03:29:22;100880.34;;;1.51;93.64
63946;BME280;50122;56.330;43.838;2023-04-03T03:31:49;100880.34;;;1.54;93.94
63946;BME280;50122;56.330;43.838;2023-04-03T03:34:16;100880.38;;;1.59;93.74
63946;BME280;50122;56.330;43.838;2023-04-03T03:36:43;100871.69;;;1.62;93.21
63946;BME280;50122;56.330;43.838;2023-04-03T03:39:10;100869.13;;;1.66;93.76
63946;BME280;50122;56.330;43.838;2023-04-03T03:41:36;100869.13;;;1.74;94.18
63946;BME280;50122;56.330;43.838;2023-04-03T03:44:03;100871.72;;;1.82;93.97
63946;BME280;50122;56.330;43.838;2023-04-03T03:46:30;100868.25;;;1.86;93.96
63946;BME280;50122;56.330;43.838;2023-04-03T03:48:56;100875.22;;;1.93;93.82
63946;BME280;50122;56.330;43.838;2023-04-03T03:51:23;100867.41;;;1.99;94.01
63946;BME280;50122;56.330;43.838;2023-04-03T03:53:50;100873.50;;;2.09;93.55
63946;BME280;50122;56.330;43.838;2023-04-03T03:56:17;100867.41;;;2.16;93.93
63946;BME280;50122;56.330;43.838;2023-04-03T03:58:43;100862.22;;;2.25;93.46
63946;BME280;50122;56.330;43.838;2023-04-03T04:01:10;100870.03;;;2.35;94.22
63946;BME280;50122;56.330;43.838;2023-04-03T04:03:37;100867.41;;;2.41;93.72
63946;BME280;50122;56.330;43.838;2023-04-03T04:06:04;100872.63;;;2.47;93.75
63946;BME280;50122;56.330;43.838;2023-04-03T04:08:31;100863.03;;;2.52;93.36
63946;BME280;50122;56.330;43.838;2023-04-03T04:10:59;100857.81;;;2.58;93.61
63946;BME280;50122;56.330;43.838;2023-04-03T04:13:26;100854.31;;;2.66;93.97
63946;BME280;50122;56.330;43.838;2023-04-03T04:15:52;100857.78;;;2.72;93.67
63946;BME280;50122;56.330;43.838;2023-04-03T04:18:19;100869.09;;;2.81;92.93
63946;BME280;50122;56.330;43.838;2023-04-03T04:20:48;100857.78;;;2.85;93.26
63946;BME280;50122;56.330;43.838;2023-04-03T04:23:15;100863.84;;;2.88;93.33
63946;BME280;50122;56.330;43.838;2023-04-03T04:25:48;100856.88;;;2.93;92.48
63946;BME280;50122;56.330;43.838;2023-04-03T04:28:15;100862.06;;;3.01;92.45
63946;BME280;50122;56.330;43.838;2023-04-03T04:30:43;100862.03;;;3.09;93.37
63946;BME280;50122;56.330;43.838;2023-04-03T04:33:10;100864.63;;;3.17;92.50
63946;BME280;50122;56.330;43.838;2023-04-03T04:35:37;100862.84;;;3.23;92.44
63946;BME280;50122;56.330;43.838;2023-04-03T04:38:04;100858.47;;;3.27;92.36
63946;BME280;50122;56.330;43.838;2023-04-03T04:40:31;100853.22;;;3.30;92.22
63946;BME280;50122;56.330;43.838;2023-04-03T04:42:57;100859.28;;;3.34;92.23
63946;BME280;50122;56.330;43.838;2023-04-03T04:45:24;100861.00;;;3.41;91.96
63946;BME280;50122;56.330;43.838;2023-04-03T04:47:50;100856.63;;;3.47;91.20
63946;BME280;50122;56.330;43.838;2023-04-03T04:50:19;100858.34;;;3.52;90.99
63946;BME280;50122;56.330;43.838;2023-04-03T04:52:46;100860.06;;;3.56;91.04
63946;BME280;50122;56.330;43.838;2023-04-03T04:55:12;100853.97;;;3.60;90.92
63946;BME280;50122;56.330;43.838;2023-04-03T04:57:39;100865.25;;;3.63;90.94
63946;BME280;50122;56.330;43.838;2023-04-03T05:00:09;100864.34;;;3.68;90.78
63946;BME280;50122;56.330;43.838;2023-04-03T05:02:36;100861.69;;;3.74;90.61
63946;BME280;50122;56.330;43.838;2023-04-03T05:05:03;100867.78;;;3.79;90.64
63946;BME280;50122;56.330;43.838;2023-04-03T05:07:31;100864.28;;;3.81;90.30
63946;BME280;50122;56.330;43.838;2023-04-03T05:09:57;100868.56;;;3.86;89.89
63946;BME280;50122;56.330;43.838;2023-04-03T05:12:24;100869.44;;;3.91;89.73
63946;BME280;50122;56.330;43.838;2023-04-03T05:14:54;100870.28;;;3.96;89.58
63946;BME280;50122;56.330;43.838;2023-04-03T05:17:21;100868.50;;;3.99;89.23
63946;BME280;50122;56.330;43.838;2023-04-03T05:19:49;100872.81;;;4.05;89.36
63946;BME280;50122;56.330;43.838;2023-04-03T05:22:16;100869.28;;;4.11;89.33
63946;BME280;50122;56.330;43.838;2023-04-03T05:24:43;100874.47;;;4.17;88.86
63946;BME280;50122;56.330;43.838;2023-04-03T05:27:10;100868.31;;;4.21;88.48
63946;BME280;50122;56.330;43.838;2023-04-03T05:29:38;100867.44;;;4.25;88.28
63946;BME280;50122;56.330;43.838;2023-04-03T05:32:05;100870.84;;;4.30;88.25
63946;BME280;50122;56.330;43.838;2023-04-03T05:34:32;100878.66;;;4.37;87.90
63946;BME280;50122;56.330;43.838;2023-04-03T16:32:27;100802.66;;;8.67;55.30
63946;BME280;50122;56.330;43.838;2023-04-03T16:34:57;100803.50;;;8.69;56.49
63946;BME280;50122;56.330;43.838;2023-04-03T16:37:24;100797.22;;;8.74;56.93
63946;BME280;50122;56.330;43.838;2023-04-03T16:39:54;100804.09;;;8.79;56.94
63946;BME280;50122;56.330;43.838;2023-04-03T16:42:25;100802.44;;;8.77;57.03
63946;BME280;50122;56.330;43.838;2023-04-03T16:44:51;100796.19;;;8.79;57.07
63946;BME280;50122;56.330;43.838;2023-04-03T16:47:18;100803.25;;;8.79;57.56
63946;BME280;50122;56.330;43.838;2023-04-03T16:49:46;100805.97;;;8.76;57.84
63946;BME280;50122;56.330;43.838;2023-04-03T16:52:13;100806.97;;;8.72;58.13
63946;BME280;50122;56.330;43.838;2023-04-03T16:54:40;100807.03;;;8.68;58.15
63946;BME280;50122;56.330;43.838;2023-04-03T16:57:07;100811.53;;;8.65;57.98
63946;BME280;50122;56.330;43.838;2023-04-03T16:59:33;100813.34;;;8.63;58.41
63946;BME280;50122;56.330;43.838;2023-04-03T17:02:00;100813.47;;;8.58;58.23
63946;BME280;50122;56.330;43.838;2023-04-03T17:04:27;100807.28;;;8.59;58.15
63946;BME280;50122;56.330;43.838;2023-04-03T17:06:54;100806.38;;;8.60;58.29
63946;BME280;50122;56.330;43.838;2023-04-03T17:09:21;100806.25;;;8.65;58.28
63946;BME280;50122;56.330;43.838;2023-04-03T17:11:52;100800.66;;;8.77;57.63
63946;BME280;50122;56.330;43.838;2023-04-03T17:14:18;100792.31;;;8.93;57.05
63946;BME280;50122;56.330;43.838;2023-04-03T17:16:45;100795.56;;;9.01;56.72
63946;BME280;50122;56.330;43.838;2023-04-03T17:19:12;100789.16;;;9.10;56.48
63946;BME280;50122;56.330;43.838;2023-04-03T17:21:39;100791.69;;;9.14;56.16
63946;BME280;50122;56.330;43.838;2023-04-03T17:24:07;100789.75;;;9.19;56.00
63946;BME280;50122;56.330;43.838;2023-04-03T17:26:35;100789.66;;;9.23;55.58
63946;BME280;50122;56.330;43.838;2023-04-03T17:29:03;100787.91;;;9.23;55.54
63946;BME280;50122;56.330;43.838;2023-04-03T17:31:30;100781.75;;;9.23;55.55
63946;BME280;50122;56.330;43.838;2023-04-03T17:34:03;100773.88;;;9.21;55.36
63946;BME280;50122;56.330;43.838;2023-04-03T17:36:30;100779.06;;;9.24;55.41
63946;BME280;50122;56.330;43.838;2023-04-03T17:38:57;100771.19;;;9.23;55.42
63946;BME280;50122;56.330;43.838;2023-04-03T17:41:25;100774.84;;;9.18;55.52
63946;BME280;50122;56.330;43.838;2023-04-03T17:43:52;100772.28;;;9.15;55.55
63946;BME280;50122;56.330;43.838;2023-04-03T17:46:23;100769.84;;;9.09;55.65
63946;BME280;50122;56.330;43.838;2023-04-03T17:49:18;100767.41;;;9.03;55.52
63946;BME280;50122;56.330;43.838;2023-04-03T17:51:48;100772.78;;;9.00;55.53
63946;BME280;50122;56.330;43.838;2023-04-03T17:54:14;100770.38;;;8.91;55.87
63946;BME280;50122;56.330;43.838;2023-04-03T17:56:42;100768.00;;;8.83;56.19
63946;BME280;50122;56.330;43.838;2023-04-03T17:59:14;100772.50;;;8.78;56.06
63946;BME280;50122;56.330;43.838;2023-04-03T18:01:43;100770.09;;;8.70;56.38
63946;BME280;50122;56.330;43.838;2023-04-03T18:04:11;100775.59;;;8.62;56.92
63946;BME280;50122;56.330;43.838;2023-04-03T18:06:46;100774.00;;;8.57;57.02
63946;BME280;50122;56.330;43.838;2023-04-03T18:09:19;100767.22;;;8.48;57.39
63946;BME280;50122;56.330;43.838;2023-04-03T18:11:47;100769.06;;;8.43;57.46
63946;BME280;50122;56.330;43.838;2023-04-03T18:14:16;100757.81;;;8.36;57.60
63946;BME280;50122;56.330;43.838;2023-04-03T18:16:44;100765.78;;;8.34;57.99
63946;BME280;50122;56.330;43.838;2023-04-03T18:19:11;100765.03;;;8.29;57.98
63946;BME280;50122;56.330;43.838;2023-04-03T18:21:50;100761.66;;;8.24;58.05
63946;BME280;50122;56.330;43.838;2023-04-03T18:24:19;100763.59;;;8.17;58.13
63946;BME280;50122;56.330;43.838;2023-04-03T18:26:50;100764.53;;;8.15;58.41
63946;BME280;50122;56.330;43.838;2023-04-03T18:29:19;100763.78;;;8.10;58.34
63946;BME280;50122;56.330;43.838;2023-04-03T18:31:49;100762.19;;;8.04;58.63
63946;BME280;50122;56.330;43.838;2023-04-03T18:34:17;100764.03;;;8.00;59.22
63946;BME280;50122;56.330;43.838;2023-04-03T18:36:44;100763.09;;;8.03;59.32
63946;BME280;50122;56.330;43.838;2023-04-03T18:39:15;100766.53;;;8.05;58.97
63946;BME280;50122;56.330;43.838;2023-04-03T18:41:42;100761.44;;;7.99;59.22
63946;BME280;50122;56.330;43.838;2023-04-03T18:44:12;100763.28;;;7.95;59.16
63946;BME280;50122;56.330;43.838;2023-04-03T18:46:40;100772.94;;;7.95;59.61
63946;BME280;50122;56.330;43.838;2023-04-03T18:49:07;100752.94;;;7.88;59.56
63946;BME280;50122;56.330;43.838;2023-04-03T18:51:35;100758.00;;;7.95;59.09
63946;BME280;50122;56.330;43.838;2023-04-03T18:54:05;100753.66;;;7.94;59.21
63946;BME280;50122;56.330;43.838;2023-04-03T18:56:35;100749.44;;;7.89;59.46
63946;BME280;50122;56.330;43.838;2023-04-03T18:59:02;100756.41;;;7.90;59.48
63946;BME280;50122;56.330;43.838;2023-04-03T19:01:29;100753.84;;;7.87;59.65
63946;BME280;50122;56.330;43.838;2023-04-03T19:03:56;100752.22;;;7.81;59.37
63946;BME280;50122;56.330;43.838;2023-04-03T19:06:23;100745.31;;;7.77;59.88
63946;BME280;50122;56.330;43.838;2023-04-03T19:08:50;100748.94;;;7.71;59.95
63946;BME280;50122;56.330;43.838;2023-04-03T19:11:17;100745.59;;;7.66;60.05
63946;BME280;50122;56.330;43.838;2023-04-03T19:13:43;100744.78;;;7.62;59.98
63946;BME280;50122;56.330;43.838;2023-04-03T19:16:32;100737.94;;;7.55;60.43
63946;BME280;50122;56.330;43.838;2023-04-03T19:19:01;100738.09;;;7.49;60.93
63946;BME280;50122;56.330;43.838;2023-04-03T19:21:27;100733.84;;;7.43;60.95
63946;BME280;50122;56.330;43.838;2023-04-03T19:23:54;100741.84;;;7.39;61.43
63946;BME280;50122;56.330;43.838;2023-04-03T19:26:25;100735.78;;;7.37;61.42
63946;BME280;50122;56.330;43.838;2023-04-03T19:28:53;100733.19;;;7.34;61.31
63946;BME280;50122;56.330;43.838;2023-04-03T19:31:21;100739.25;;;7.37;61.85
63946;BME280;50122;56.330;43.838;2023-04-03T19:33:49;100741.97;;;7.34;61.38
63946;BME280;50122;56.330;43.838;2023-04-03T19:36:17;100728.94;;;7.29;61.55
63946;BME280;50122;56.330;43.838;2023-04-03T19:38:44;100730.81;;;7.23;62.06
63946;BME280;50122;56.330;43.838;2023-04-03T19:41:14;100729.09;;;7.22;61.62
63946;BME280;50122;56.330;43.838;2023-04-03T19:43:43;100734.22;;;7.26;61.60
63946;BME280;50122;56.330;43.838;2023-04-03T19:46:10;100722.94;;;7.23;62.15
63946;BME280;50122;56.330;43.838;2023-04-03T19:48:37;100725.72;;;7.17;61.80
63946;BME280;50122;56.330;43.838;2023-04-03T19:51:04;100731.00;;;7.15;62.31
63946;BME280;50122;56.330;43.838;2023-04-03T19:53:31;100730.97;;;7.17;61.67
63946;BME280;50122;56.330;43.838;2023-04-03T19:55:59;100722.19;;;7.16;61.79
63946;BME280;50122;56.330;43.838;2023-04-03T19:58:26;100722.13;;;7.19;62.08
63946;BME280;50122;56.330;43.838;2023-04-03T20:00:56;100724.63;;;7.25;61.95
63946;BME280;50122;56.330;43.838;2023-04-03T20:03:24;100727.94;;;7.35;61.71
63946;BME280;50122;56.330;43.838;2023-04-03T20:05:51;100727.66;;;7.46;61.46
63946;BME280;50122;56.330;43.838;2023-04-03T20:08:18;100721.31;;;7.55;61.51
63946;BME280;50122;56.330;43.838;2023-04-03T20:10:46;100725.53;;;7.62;61.03
63946;BME280;50122;56.330;43.838;2023-04-03T20:13:14;100735.91;;;7.67;61.05
63946;BME280;50122;56.330;43.838;2023-04-03T20:15:41;100732.31;;;7.71;60.71
63946;BME280;50122;56.330;43.838;2023-04-03T20:18:20;100726.09;;;7.75;60.77
63946;BME280;50122;56.330;43.838;2023-04-03T20:20:59;100728.59;;;7.79;59.91
63946;BME280;50122;56.330;43.838;2023-04-03T20:23:28;100731.19;;;7.81;59.96
63946;BME280;50122;56.330;43.838;2023-04-03T20:25:56;100718.06;;;7.79;60.36
63946;BME280;50122;56.330;43.838;2023-04-03T20:28:36;100725.91;;;7.81;60.02
63946;BME280;50122;56.330;43.838;2023-04-03T20:31:05;100726.81;;;7.81;60.50
63946;BME280;50122;56.330;43.838;2023-04-03T20:33:34;100718.03;;;7.81;59.96
63946;BME280;50122;56.330;43.838;2023-04-03T20:36:02;100718.91;;;7.81;60.11
63946;BME280;50122;56.330;43.838;2023-04-03T20:38:29;100715.31;;;7.84;60.34
63946;BME280;50122;56.330;43.838;2023-04-03T20:40:56;100714.41;;;7.85;60.21
63946;BME280;50122;56.330;43.838;2023-04-03T20:43:23;100716.16;;;7.86;60.22
63946;BME280;50122;56.330;43.838;2023-04-03T20:45:50;100702.09;;;7.87;59.69
63946;BME280;50122;56.330;43.838;2023-04-03T20:48:17;100703.88;;;7.85;60.18
63946;BME280;50122;56.330;43.838;2023-04-03T20:50:44;100703.84;;;7.87;59.61
63946;BME280;50122;56.330;43.838;2023-04-03T20:53:12;100698.66;;;7.83;60.11
63946;BME280;50122;56.330;43.838;2023-04-03T20:55:40;100710.97;;;7.83;59.67
63946;BME280;50122;56.330;43.838;2023-04-03T20:58:07;100710.16;;;7.79;59.96
63946;BME280;50122;56.330;43.838;2023-04-03T21:00:34;100711.06;;;7.78;59.93
63946;BME280;50122;56.330;43.838;2023-04-03T21:03:03;100710.38;;;7.72;60.22
63946;BME280;50122;56.330;43.838;2023-04-03T21:05:31;100716.72;;;7.63;60.64
63946;BME280;50122;56.330;43.838;2023-04-03T21:19:42;100702.31;;;7.04;61.70
63946;BME280;50122;56.330;43.838;2023-04-03T21:22:12;100706.09;;;6.92;62.13
63946;BME280;50122;56.330;43.838;2023-04-03T21:24:39;100705.44;;;6.83;62.18
63946;BME280;50122;56.330;43.838;2023-04-03T21:27:06;100698.56;;;6.75;62.39
63946;BME280;50122;56.330;43.838;2023-04-03T21:29:33;100698.72;;;6.69;62.98
63946;BME280;50122;56.330;43.838;2023-04-03T21:32:00;100706.59;;;6.69;63.09
63946;BME280;50122;56.330;43.838;2023-04-03T21:34:28;100706.72;;;6.63;62.64
63946;BME280;50122;56.330;43.838;2023-04-03T21:36:59;100708.53;;;6.59;63.18
63946;BME280;50122;56.330;43.838;2023-04-03T21:39:26;100704.25;;;6.55;63.12
63946;BME280;50122;56.330;43.838;2023-04-03T21:41:53;100709.56;;;6.52;63.04
63946;BME280;50122;56.330;43.838;2023-04-03T21:44:20;100703.56;;;6.47;63.45
63946;BME280;50122;56.330;43.838;2023-04-03T21:46:48;100707.06;;;6.46;63.57
63946;BME280;50122;56.330;43.838;2023-04-03T21:49:21;100701.84;;;6.45;63.75
63946;BME280;50122;56.330;43.838;2023-04-03T21:51:48;100710.69;;;6.40;63.46
63946;BME280;50122;56.330;43.838;2023-04-03T21:54:17;100701.13;;;6.36;63.83
63946;BME280;50122;56.330;43.838;2023-04-03T21:56:45;100702.03;;;6.34;64.12
63946;BME280;50122;56.330;43.838;2023-04-03T21:59:17;100697.72;;;6.33;64.21
63946;BME280;50122;56.330;43.838;2023-04-03T22:01:44;100697.75;;;6.31;64.49
63946;BME280;50122;56.330;43.838;2023-04-03T22:04:12;100692.50;;;6.31;64.30
63946;BME280;50122;56.330;43.838;2023-04-03T22:06:38;100703.81;;;6.33;64.43
63946;BME280;50122;56.330;43.838;2023-04-03T22:09:05;100704.63;;;6.35;64.23
63946;BME280;50122;56.330;43.838;2023-04-03T22:11:32;100695.06;;;6.34;64.17
63946;BME280;50122;56.330;43.838;2023-04-03T22:13:58;100702.97;;;6.33;64.41
63946;BME280;50122;56.330;43.838;2023-04-03T22:16:28;100697.75;;;6.31;64.33
63946;BME280;50122;56.330;43.838;2023-04-03T22:18:55;100695.97;;;6.32;64.53
63946;BME280;50122;56.330;43.838;2023-04-03T22:21:24;100698.63;;;6.30;64.73
63946;BME280;50122;56.330;43.838;2023-04-03T22:23:51;100701.19;;;6.33;64.49
63946;BME280;50122;56.330;43.838;2023-04-03T22:26:20;100703.72;;;6.38;64.25
63946;BME280;50122;56.330;43.838;2023-04-03T22:28:47;100696.69;;;6.38;64.28
63946;BME280;50122;56.330;43.838;2023-04-03T22:31:14;100703.72;;;6.38;64.29
63946;BME280;50122;56.330;43.838;2023-04-03T22:33:43;100699.38;;;6.35;64.45
63946;BME280;50122;56.330;43.838;2023-04-03T22:36:11;100692.41;;;6.36;63.96
63946;BME280;50122;56.330;43.838;2023-04-03T22:38:39;100697.66;;;6.36;64.47
63946;BME280;50122;56.330;43.838;2023-04-03T22:41:10;100695.09;;;6.33;64.21
63946;BME280;50122;56.330;43.838;2023-04-03T22:43:37;100692.59;;;6.25;64.27
63946;BME280;50122;56.330;43.838;2023-04-03T22:46:06;100695.25;;;6.23;64.41
63946;BME280;50122;56.330;43.838;2023-04-03T22:48:35;100693.53;;;6.21;64.73
63946;BME280;50122;56.330;43.838;2023-04-03T22:51:05;100693.59;;;6.18;64.68
63946;BME280;50122;56.330;43.838;2023-04-03T22:53:33;100694.41;;;6.23;64.81
63946;BME280;50122;56.330;43.838;2023-04-03T22:56:01;100690.91;;;6.21;64.43
63946;BME280;50122;56.330;43.838;2023-04-03T22:58:28;100692.81;;;6.14;64.65
63946;BME280;50122;56.330;43.838;2023-04-03T23:03:30;100700.00;;;6.04;65.18
63946;BME280;50122;56.330;43.838;2023-04-03T23:05:56;100690.28;;;6.08;65.12
63946;BME280;50122;56.330;43.838;2023-04-03T23:08:23;100691.19;;;6.07;64.84
63946;BME280;50122;56.330;43.838;2023-04-03T23:10:53;100690.31;;;6.06;64.58
63946;BME280;50122;56.330;43.838;2023-04-03T23:13:20;100696.44;;;6.07;64.73
63946;BME280;50122;56.330;43.838;2023-04-03T23:15:57;100693.00;;;6.03;65.05
63946;BME280;50122;56.330;43.838;2023-04-03T23:18:27;100692.16;;;6.03;64.80
63946;BME280;50122;56.330;43.838;2023-04-03T23:20:58;100690.38;;;6.03;64.93
63946;BME280;50122;56.330;43.838;2023-04-03T23:23:27;100698.31;;;6.00;65.05
63946;BME280;50122;56.330;43.838;2023-04-03T23:25:58;100700.09;;;5.97;64.84
63946;BME280;50122;56.330;43.838;2023-04-03T23:28:26;100692.28;;;5.92;65.24
63946;BME280;50122;56.330;43.838;2023-04-03T23:31:00;100688.88;;;5.88;65.21
63946;BME280;50122;56.330;43.838;2023-04-03T23:33:29;100689.91;;;5.80;65.20
63946;BME280;50122;56.330;43.838;2023-04-03T23:35:58;100689.06;;;5.78;65.30
63946;BME280;50122;56.330;43.838;2023-04-03T23:38:25;100690.81;;;5.77;65.06
63946;BME280;50122;56.330;43.838;2023-04-03T23:40:52;100702.16;;;5.79;65.30
63946;BME280;50122;56.330;43.838;2023-04-03T23:43:20;100684.69;;;5.78;65.44
63946;BME280;50122;56.330;43.838;2023-04-03T23:45:47;100684.75;;;5.75;65.19
63946;BME280;50122;56.330;43.838;2023-04-03T23:48:13;100694.38;;;5.73;65.04
63946;BME280;50122;56.330;43.838;2023-04-03T23:50:40;100682.22;;;5.69;65.44
63946;BME280;50122;56.330;43.838;2023-04-03T23:53:08;100684.81;;;5.72;65.56
63946;BME280;50122;56.330;43.838;2023-04-03T23:55:35;100686.53;;;5.73;65.30
63946;BME280;50122;56.330;43.838;2023-04-03T23:58:02;100684.84;;;5.69;65.65
